RoSS Sea — WDE3122 — position and weather

sailwx.info

Track history (hours):
 
Tides and Currents Weather Stations Pressure Air Temp Water Temp Dewpoint Dewpoint Depression Visibility Wind Speed Wind Dir Waves Ship Positions

RoSS Sea

Owner: Kirby Inland Marine, LP, Houston, TX. More information available from US FCC via Universal Licensing System and Coast Guard Vessel Documentation Center.

Last reported at 2017-Aug-17 13:57 UTC. Time now 2017-Aug-17 21:30 UTC.
Position N 36°59' W 076°07'.

Length 30 m; draft 5 m.

Type: Towing. MMSI: 367334360.

Date/timePositionNaut miles runAvg speedWind from/ knotsBaromVisibWave heightAir tempDewpointWater temp
2017-Aug-17 13:57N 36°59' W 076°07'3 7.1
2017-Aug-17 13:31N 36°58' W 076°03'4 7.3
2017-Aug-17 12:58N 36°57' W 075°59'18 7.6
2017-Aug-17 10:40N 37°07' W 075°40'2 8.4
2017-Aug-17 10:26N 37°08' W 075°39'4 8.5
2017-Aug-17 10:00N 37°11' W 075°36'15 8.4
2017-Aug-17 08:16N 37°23' W 075°25'8 8.4
2017-Aug-17 07:17N 37°30' W 075°20'2 8.5
2017-Aug-17 07:00N 37°32' W 075°18'14 8.4
2017-Aug-17 05:22N 37°44' W 075°09'3 8.3
2017-Aug-17 04:57N 37°47' W 075°06'4 8.2
2017-Aug-17 04:30N 37°50' W 075°04'109 8.4
2017-Aug-16 15:26N 39°29' W 074°06'4 8.6
2017-Aug-16 14:56N 39°33' W 074°04'4 8.5
2017-Aug-16 14:31N 39°37' W 074°03'4 8.5
2017-Aug-16 13:59N 39°41' W 074°01'48 7.9
2017-Aug-16 07:57N 40°29' W 073°59'8 7.8
2017-Aug-16 06:53N 40°30' W 074°10'7 2.0
2017-Aug-16 03:29N 40°36' W 074°12'3 5.6
2017-Aug-16 02:59N 40°39' W 074°10'0 0.0
2017-Aug-16 02:30N 40°39' W 074°10'0 0.0
2017-Aug-16 02:00N 40°39' W 074°10'0 0.0
2017-Aug-16 01:18N 40°39' W 074°10'0 0.0
2017-Aug-16 00:18N 40°39' W 074°10'0 0.0
2017-Aug-15 23:42N 40°39' W 074°10'0 0.0
2017-Aug-15 23:15N 40°39' W 074°10'0 0.0
2017-Aug-15 23:00N 40°39' W 074°10'0 0.0
2017-Aug-15 22:27N 40°39' W 074°10'0 0.0
2017-Aug-15 22:00N 40°39' W 074°10'0 0.0
2017-Aug-15 21:27N 40°39' W 074°10'0 0.0
2017-Aug-15 20:18N 40°39' W 074°10'0 0.0
2017-Aug-15 19:48N 40°39' W 074°10'0 0.0
2017-Aug-15 19:30N 40°39' W 074°10'0 0.0
2017-Aug-15 19:00N 40°39' W 074°10'0 0.0
2017-Aug-15 18:27N 40°39' W 074°10'0 0.0
2017-Aug-15 17:48N 40°39' W 074°10'0 0.0
2017-Aug-15 17:30N 40°39' W 074°10'0 0.0
2017-Aug-15 17:00N 40°39' W 074°10'0 0.0
2017-Aug-15 16:30N 40°39' W 074°10'0 0.1
2017-Aug-15 16:00N 40°39' W 074°10'3 0.1
2017-Aug-14 12:43N 40°36' W 074°12'2 7.0
2017-Aug-14 12:30N 40°38' W 074°12'3 5.5
2017-Aug-14 12:00N 40°39' W 074°09'3 6.9
2017-Aug-14 11:30N 40°39' W 074°04'3 5.2
2017-Aug-14 11:00N 40°37' W 074°03'2 4.3
2017-Aug-14 10:30N 40°35' W 074°01'0 0.5
2017-Aug-14 10:00N 40°35' W 074°02'2 4.2
2017-Aug-14 09:29N 40°32' W 074°01'43 5.7
2017-Aug-14 01:57N 39°50' W 073°58'3 7.1
2017-Aug-14 01:30N 39°47' W 073°58'4 6.9
2017-Aug-14 00:58N 39°43' W 073°60'3 6.8
2017-Aug-14 00:30N 39°40' W 074°01'3 6.8
2017-Aug-14 00:00N 39°37' W 074°03'3 6.7
2017-Aug-13 23:29N 39°34' W 074°05'3 6.6
2017-Aug-13 23:00N 39°31' W 074°07'4 6.7
2017-Aug-13 22:23N 39°28' W 074°10'4 6.8
2017-Aug-13 21:46N 39°24' W 074°14'2 6.7
2017-Aug-13 21:28N 39°23' W 074°15'49 6.2
2017-Aug-13 13:35N 38°48' W 074°59'15 5.9
2017-Aug-13 11:07N 39°00' W 075°09'1 2.2
2017-Aug-13 10:39N 39°01' W 075°09'3 9.1
2017-Aug-13 10:19N 39°04' W 075°11'5 9.1
2017-Aug-13 09:44N 39°08' W 075°14'2 8.9
2017-Aug-13 09:29N 39°10' W 075°16'4 8.9
2017-Aug-13 09:00N 39°14' W 075°18'4 8.3
2017-Aug-13 08:30N 39°17' W 075°22'4 7.6
2017-Aug-13 08:00N 39°20' W 075°25'3 6.6
2017-Aug-13 07:30N 39°22' W 075°28'3 6.3
2017-Aug-13 07:00N 39°25' W 075°31'3 5.9
2017-Aug-13 06:30N 39°27' W 075°33'3 5.3
2017-Aug-13 06:00N 39°30' W 075°34'3 5.6
2017-Aug-13 05:30N 39°33' W 075°33'3 5.8
2017-Aug-13 05:00N 39°35' W 075°34'3 5.6
2017-Aug-13 04:30N 39°38' W 075°34'3 6.4
2017-Aug-13 04:00N 39°41' W 075°32'3 6.8
2017-Aug-13 03:30N 39°44' W 075°30'3 6.9
2017-Aug-13 03:00N 39°47' W 075°28'3 6.9
2017-Aug-13 02:30N 39°49' W 075°24'4 7.4
2017-Aug-13 02:01N 39°51' W 075°20'4 7.0
2017-Aug-13 01:31N 39°51' W 075°16'2 3.4
2017-Aug-13 01:00N 39°52' W 075°14'0 0.0
2017-Aug-13 00:30N 39°52' W 075°14'0 0.0
2017-Aug-13 00:00N 39°52' W 075°14'0 0.1
2017-Aug-12 23:30N 39°52' W 075°13'0 0.2
2017-Aug-12 23:01N 39°52' W 075°13'0 0.1
2017-Aug-12 22:30N 39°52' W 075°13'0 0.0
2017-Aug-12 22:00N 39°52' W 075°13'0 0.0
2017-Aug-12 21:31N 39°52' W 075°13'0 0.0
2017-Aug-12 21:00N 39°52' W 075°13'0 0.0
2017-Aug-12 20:30N 39°52' W 075°13'0 0.0
2017-Aug-12 20:00N 39°52' W 075°13'0 0.0
2017-Aug-12 19:30N 39°52' W 075°13'0 0.0
2017-Aug-12 19:00N 39°52' W 075°13'0 0.0
2017-Aug-12 18:30N 39°52' W 075°13'0 0.0
2017-Aug-12 18:00N 39°52' W 075°13'0 0.0
2017-Aug-12 17:30N 39°52' W 075°13'0 0.2
2017-Aug-12 17:00N 39°52' W 075°13'0 0.1
2017-Aug-12 16:30N 39°52' W 075°14'0 0.1
2017-Aug-12 16:01N 39°52' W 075°14'0 0.0
2017-Aug-12 15:31N 39°52' W 075°14'0 0.0
2017-Aug-12 15:00N 39°52' W 075°14'0 0.0
2017-Aug-12 14:30N 39°52' W 075°14'0 0.1
2017-Aug-12 14:01N 39°52' W 075°14'0 0.0
2017-Aug-12 13:30N 39°52' W 075°14'0 0.0
2017-Aug-12 13:01N 39°52' W 075°14'0 0.0
2017-Aug-12 12:31N 39°52' W 075°14'1 2.5
2017-Aug-12 12:00N 39°51' W 075°15'3 5.6
2017-Aug-12 11:30N 39°51' W 075°19'3 5.4
2017-Aug-12 11:00N 39°50' W 075°22'2 4.2
2017-Aug-12 10:30N 39°49' W 075°24'0 0.2
2017-Aug-12 09:58N 39°49' W 075°24'0 0.2
2017-Aug-12 09:31N 39°49' W 075°24'0 0.1
2017-Aug-12 08:52N 39°49' W 075°24'0 0.0
2017-Aug-12 08:28N 39°49' W 075°24'0 0.0
2017-Aug-12 08:01N 39°49' W 075°24'0 0.0
2017-Aug-12 07:28N 39°49' W 075°24'0 0.0
2017-Aug-12 06:58N 39°49' W 075°24'0 0.0
2017-Aug-12 06:31N 39°49' W 075°24'0 0.0
2017-Aug-12 05:58N 39°49' W 075°24'0 0.0
2017-Aug-12 05:28N 39°49' W 075°24'0 0.0
2017-Aug-12 04:52N 39°49' W 075°24'0 0.1
2017-Aug-12 04:31N 39°49' W 075°24'0 0.2
2017-Aug-12 04:00N 39°49' W 075°24'0 0.2
2017-Aug-12 03:30N 39°49' W 075°24'0 0.1
2017-Aug-12 03:00N 39°48' W 075°24'0 0.0
2017-Aug-12 02:31N 39°48' W 075°24'0 0.1
2017-Aug-12 02:00N 39°48' W 075°24'0 0.1
2017-Aug-12 01:31N 39°48' W 075°24'0 0.0
2017-Aug-12 01:00N 39°48' W 075°24'0 0.0
2017-Aug-12 00:30N 39°48' W 075°24'0 0.0
2017-Aug-12 00:01N 39°48' W 075°24'0 0.0
2017-Aug-11 23:31N 39°48' W 075°24'0 0.0
2017-Aug-11 23:01N 39°48' W 075°24'0 0.1
2017-Aug-11 22:25N 39°49' W 075°24'0 0.3
2017-Aug-11 21:58N 39°49' W 075°24'0 0.1
2017-Aug-11 21:19N 39°49' W 075°24'0 0.1
2017-Aug-11 21:01N 39°49' W 075°24'0 0.1
2017-Aug-11 20:31N 39°49' W 075°24'2 4.0
2017-Aug-11 20:01N 39°50' W 075°22'3 5.5
2017-Aug-11 19:30N 39°51' W 075°19'3 5.5
2017-Aug-11 19:00N 39°51' W 075°15'3 5.9
2017-Aug-11 18:31N 39°53' W 075°12'3 5.3
2017-Aug-11 18:00N 39°53' W 075°08'1 1.2
2017-Aug-11 17:30N 39°54' W 075°08'0 0.0
2017-Aug-11 17:00N 39°54' W 075°08'0 0.0
2017-Aug-11 16:30N 39°54' W 075°08'0 0.0
2017-Aug-11 16:01N 39°54' W 075°08'0 0.2
2017-Aug-11 15:30N 39°54' W 075°08'3 5.7
2017-Aug-11 15:00N 39°53' W 075°12'0 0.1
2017-Aug-11 14:00N 39°54' W 075°12'0 0.0
2017-Aug-11 13:30N 39°54' W 075°12'0 0.0
2017-Aug-11 13:00N 39°54' W 075°12'0 0.0
2017-Aug-11 12:30N 39°54' W 075°12'0 0.1
2017-Aug-11 12:00N 39°53' W 075°12'0 0.0
2017-Aug-11 11:31N 39°53' W 075°12'0 0.0
2017-Aug-11 11:01N 39°53' W 075°12'0 0.2
2017-Aug-11 10:31N 39°54' W 075°12'0 0.0
2017-Aug-11 10:00N 39°54' W 075°12'0 0.1
2017-Aug-11 09:30N 39°54' W 075°12'0 0.0
2017-Aug-11 09:00N 39°54' W 075°12'0 0.0
2017-Aug-11 08:30N 39°54' W 075°12'0 0.0
2017-Aug-11 08:00N 39°54' W 075°12'0 0.0
2017-Aug-11 07:31N 39°54' W 075°12'0 0.0
2017-Aug-11 07:00N 39°54' W 075°12'0 0.9
2017-Aug-11 06:31N 39°53' W 075°12'3 6.1
2017-Aug-11 06:01N 39°54' W 075°08'0 0.0
2017-Aug-11 05:30N 39°54' W 075°08'0 0.7
2017-Aug-11 05:00N 39°53' W 075°08'2 4.5
2017-Aug-11 04:30N 39°53' W 075°11'5 9.1
2017-Aug-11 04:00N 39°51' W 075°16'4 8.9
2017-Aug-11 03:30N 39°50' W 075°22'4 8.8
2017-Aug-11 03:00N 39°47' W 075°27'4 8.2
2017-Aug-11 02:30N 39°44' W 075°30'4 7.8
2017-Aug-11 02:00N 39°40' W 075°32'3 6.5
2017-Aug-11 01:30N 39°38' W 075°34'3 6.6
2017-Aug-11 01:00N 39°35' W 075°33'3 5.2
2017-Aug-11 00:30N 39°33' W 075°36'4 8.7
2017-Aug-11 00:00N 39°33' W 075°42'4 8.6
2017-Aug-10 23:30N 39°32' W 075°47'4 7.3
2017-Aug-10 23:01N 39°32' W 075°52'4 8.0
2017-Aug-10 22:29N 39°29' W 075°56'6 7.8
2017-Aug-10 21:42N 39°25' W 076°02'34 6.9
2017-Aug-10 16:45N 38°55' W 076°24'3 7.7
2017-Aug-10 16:20N 38°52' W 076°25'51 7.2
2017-Aug-10 09:16N 38°01' W 076°22'3 8.9
2017-Aug-10 08:59N 38°03' W 076°25'5 8.6
2017-Aug-10 08:24N 38°06' W 076°30'34 1.8
2017-Aug-09 13:09N 38°24' W 077°06'31 6.9
2017-Aug-09 08:43N 38°08' W 076°33'2 7.9
2017-Aug-09 08:28N 38°06' W 076°31'4 8.0
2017-Aug-09 08:00N 38°04' W 076°27'4 8.1
2017-Aug-09 07:30N 38°02' W 076°23'4 8.3
2017-Aug-09 07:00N 37°60' W 076°19'76 1.8
2017-Aug-07 14:00N 39°14' W 076°33'  
Track history (hours):
 
Tides and Currents Weather Stations Pressure Air Temp Water Temp Dewpoint Dewpoint Depression Visibility Wind Speed Wind Dir Waves Ship Positions

RoSS Sea

Owner: Kirby Inland Marine, LP, Houston, TX. More information available from US FCC via Universal Licensing System and Coast Guard Vessel Documentation Center.

Last reported at 2017-Aug-17 13:57 UTC. Time now 2017-Aug-17 21:30 UTC.
Position N 36°59' W 076°07'.

Length 30 m; draft 5 m.

Type: Towing. MMSI: 367334360.

Date/timePositionNaut miles runAvg speedWind from/ knotsBaromVisibWave heightAir tempDewpointWater temp
2017-Aug-17 13:57N 36°59' W 076°07'3 7.1
2017-Aug-17 13:31N 36°58' W 076°03'4 7.3
2017-Aug-17 12:58N 36°57' W 075°59'18 7.6
2017-Aug-17 10:40N 37°07' W 075°40'2 8.4
2017-Aug-17 10:26N 37°08' W 075°39'4 8.5
2017-Aug-17 10:00N 37°11' W 075°36'15 8.4
2017-Aug-17 08:16N 37°23' W 075°25'8 8.4
2017-Aug-17 07:17N 37°30' W 075°20'2 8.5
2017-Aug-17 07:00N 37°32' W 075°18'14 8.4
2017-Aug-17 05:22N 37°44' W 075°09'3 8.3
2017-Aug-17 04:57N 37°47' W 075°06'4 8.2
2017-Aug-17 04:30N 37°50' W 075°04'109 8.4
2017-Aug-16 15:26N 39°29' W 074°06'4 8.6
2017-Aug-16 14:56N 39°33' W 074°04'4 8.5
2017-Aug-16 14:31N 39°37' W 074°03'4 8.5
2017-Aug-16 13:59N 39°41' W 074°01'48 7.9
2017-Aug-16 07:57N 40°29' W 073°59'8 7.8
2017-Aug-16 06:53N 40°30' W 074°10'7 2.0
2017-Aug-16 03:29N 40°36' W 074°12'3 5.6
2017-Aug-16 02:59N 40°39' W 074°10'0 0.0
2017-Aug-16 02:30N 40°39' W 074°10'0 0.0
2017-Aug-16 02:00N 40°39' W 074°10'0 0.0
2017-Aug-16 01:18N 40°39' W 074°10'0 0.0
2017-Aug-16 00:18N 40°39' W 074°10'0 0.0
2017-Aug-15 23:42N 40°39' W 074°10'0 0.0
2017-Aug-15 23:15N 40°39' W 074°10'0 0.0
2017-Aug-15 23:00N 40°39' W 074°10'0 0.0
2017-Aug-15 22:27N 40°39' W 074°10'0 0.0
2017-Aug-15 22:00N 40°39' W 074°10'0 0.0
2017-Aug-15 21:27N 40°39' W 074°10'0 0.0
2017-Aug-15 20:18N 40°39' W 074°10'0 0.0
2017-Aug-15 19:48N 40°39' W 074°10'0 0.0
2017-Aug-15 19:30N 40°39' W 074°10'0 0.0
2017-Aug-15 19:00N 40°39' W 074°10'0 0.0
2017-Aug-15 18:27N 40°39' W 074°10'0 0.0
2017-Aug-15 17:48N 40°39' W 074°10'0 0.0
2017-Aug-15 17:30N 40°39' W 074°10'0 0.0
2017-Aug-15 17:00N 40°39' W 074°10'0 0.0
2017-Aug-15 16:30N 40°39' W 074°10'0 0.1
2017-Aug-15 16:00N 40°39' W 074°10'3 0.1
2017-Aug-14 12:43N 40°36' W 074°12'2 7.0
2017-Aug-14 12:30N 40°38' W 074°12'3 5.5
2017-Aug-14 12:00N 40°39' W 074°09'3 6.9
2017-Aug-14 11:30N 40°39' W 074°04'3 5.2
2017-Aug-14 11:00N 40°37' W 074°03'2 4.3
2017-Aug-14 10:30N 40°35' W 074°01'0 0.5
2017-Aug-14 10:00N 40°35' W 074°02'2 4.2
2017-Aug-14 09:29N 40°32' W 074°01'43 5.7
2017-Aug-14 01:57N 39°50' W 073°58'3 7.1
2017-Aug-14 01:30N 39°47' W 073°58'4 6.9
2017-Aug-14 00:58N 39°43' W 073°60'3 6.8
2017-Aug-14 00:30N 39°40' W 074°01'3 6.8
2017-Aug-14 00:00N 39°37' W 074°03'3 6.7
2017-Aug-13 23:29N 39°34' W 074°05'3 6.6
2017-Aug-13 23:00N 39°31' W 074°07'4 6.7
2017-Aug-13 22:23N 39°28' W 074°10'4 6.8
2017-Aug-13 21:46N 39°24' W 074°14'2 6.7
2017-Aug-13 21:28N 39°23' W 074°15'49 6.2
2017-Aug-13 13:35N 38°48' W 074°59'15 5.9
2017-Aug-13 11:07N 39°00' W 075°09'1 2.2
2017-Aug-13 10:39N 39°01' W 075°09'3 9.1
2017-Aug-13 10:19N 39°04' W 075°11'5 9.1
2017-Aug-13 09:44N 39°08' W 075°14'2 8.9
2017-Aug-13 09:29N 39°10' W 075°16'4 8.9
2017-Aug-13 09:00N 39°14' W 075°18'4 8.3
2017-Aug-13 08:30N 39°17' W 075°22'4 7.6
2017-Aug-13 08:00N 39°20' W 075°25'3 6.6
2017-Aug-13 07:30N 39°22' W 075°28'3 6.3
2017-Aug-13 07:00N 39°25' W 075°31'3 5.9
2017-Aug-13 06:30N 39°27' W 075°33'3 5.3
2017-Aug-13 06:00N 39°30' W 075°34'3 5.6
2017-Aug-13 05:30N 39°33' W 075°33'3 5.8
2017-Aug-13 05:00N 39°35' W 075°34'3 5.6
2017-Aug-13 04:30N 39°38' W 075°34'3 6.4
2017-Aug-13 04:00N 39°41' W 075°32'3 6.8
2017-Aug-13 03:30N 39°44' W 075°30'3 6.9
2017-Aug-13 03:00N 39°47' W 075°28'3 6.9
2017-Aug-13 02:30N 39°49' W 075°24'4 7.4
2017-Aug-13 02:01N 39°51' W 075°20'4 7.0
2017-Aug-13 01:31N 39°51' W 075°16'2 3.4
2017-Aug-13 01:00N 39°52' W 075°14'0 0.0
2017-Aug-13 00:30N 39°52' W 075°14'0 0.0
2017-Aug-13 00:00N 39°52' W 075°14'0 0.1
2017-Aug-12 23:30N 39°52' W 075°13'0 0.2
2017-Aug-12 23:01N 39°52' W 075°13'0 0.1
2017-Aug-12 22:30N 39°52' W 075°13'0 0.0
2017-Aug-12 22:00N 39°52' W 075°13'0 0.0
2017-Aug-12 21:31N 39°52' W 075°13'0 0.0
2017-Aug-12 21:00N 39°52' W 075°13'0 0.0
2017-Aug-12 20:30N 39°52' W 075°13'0 0.0
2017-Aug-12 20:00N 39°52' W 075°13'0 0.0
2017-Aug-12 19:30N 39°52' W 075°13'0 0.0
2017-Aug-12 19:00N 39°52' W 075°13'0 0.0
2017-Aug-12 18:30N 39°52' W 075°13'0 0.0
2017-Aug-12 18:00N 39°52' W 075°13'0 0.0
2017-Aug-12 17:30N 39°52' W 075°13'0 0.2
2017-Aug-12 17:00N 39°52' W 075°13'0 0.1
2017-Aug-12 16:30N 39°52' W 075°14'0 0.1
2017-Aug-12 16:01N 39°52' W 075°14'0 0.0
2017-Aug-12 15:31N 39°52' W 075°14'0 0.0
2017-Aug-12 15:00N 39°52' W 075°14'0 0.0
2017-Aug-12 14:30N 39°52' W 075°14'0 0.1
2017-Aug-12 14:01N 39°52' W 075°14'0 0.0
2017-Aug-12 13:30N 39°52' W 075°14'0 0.0
2017-Aug-12 13:01N 39°52' W 075°14'0 0.0
2017-Aug-12 12:31N 39°52' W 075°14'1 2.5
2017-Aug-12 12:00N 39°51' W 075°15'3 5.6
2017-Aug-12 11:30N 39°51' W 075°19'3 5.4
2017-Aug-12 11:00N 39°50' W 075°22'2 4.2
2017-Aug-12 10:30N 39°49' W 075°24'0 0.2
2017-Aug-12 09:58N 39°49' W 075°24'0 0.2
2017-Aug-12 09:31N 39°49' W 075°24'0 0.1
2017-Aug-12 08:52N 39°49' W 075°24'0 0.0
2017-Aug-12 08:28N 39°49' W 075°24'0 0.0
2017-Aug-12 08:01N 39°49' W 075°24'0 0.0
2017-Aug-12 07:28N 39°49' W 075°24'0 0.0
2017-Aug-12 06:58N 39°49' W 075°24'0 0.0
2017-Aug-12 06:31N 39°49' W 075°24'0 0.0
2017-Aug-12 05:58N 39°49' W 075°24'0 0.0
2017-Aug-12 05:28N 39°49' W 075°24'0 0.0
2017-Aug-12 04:52N 39°49' W 075°24'0 0.1
2017-Aug-12 04:31N 39°49' W 075°24'0 0.2
2017-Aug-12 04:00N 39°49' W 075°24'0 0.2
2017-Aug-12 03:30N 39°49' W 075°24'0 0.1
2017-Aug-12 03:00N 39°48' W 075°24'0 0.0
2017-Aug-12 02:31N 39°48' W 075°24'0 0.1
2017-Aug-12 02:00N 39°48' W 075°24'0 0.1
2017-Aug-12 01:31N 39°48' W 075°24'0 0.0
2017-Aug-12 01:00N 39°48' W 075°24'0 0.0
2017-Aug-12 00:30N 39°48' W 075°24'0 0.0
2017-Aug-12 00:01N 39°48' W 075°24'0 0.0
2017-Aug-11 23:31N 39°48' W 075°24'0 0.0
2017-Aug-11 23:01N 39°48' W 075°24'0 0.1
2017-Aug-11 22:25N 39°49' W 075°24'0 0.3
2017-Aug-11 21:58N 39°49' W 075°24'0 0.1
2017-Aug-11 21:19N 39°49' W 075°24'0 0.1
2017-Aug-11 21:01N 39°49' W 075°24'0 0.1
2017-Aug-11 20:31N 39°49' W 075°24'2 4.0
2017-Aug-11 20:01N 39°50' W 075°22'3 5.5
2017-Aug-11 19:30N 39°51' W 075°19'3 5.5
2017-Aug-11 19:00N 39°51' W 075°15'3 5.9
2017-Aug-11 18:31N 39°53' W 075°12'3 5.3
2017-Aug-11 18:00N 39°53' W 075°08'1 1.2
2017-Aug-11 17:30N 39°54' W 075°08'0 0.0
2017-Aug-11 17:00N 39°54' W 075°08'0 0.0
2017-Aug-11 16:30N 39°54' W 075°08'0 0.0
2017-Aug-11 16:01N 39°54' W 075°08'0 0.2
2017-Aug-11 15:30N 39°54' W 075°08'3 5.7
2017-Aug-11 15:00N 39°53' W 075°12'0 0.1
2017-Aug-11 14:00N 39°54' W 075°12'0 0.0
2017-Aug-11 13:30N 39°54' W 075°12'0 0.0
2017-Aug-11 13:00N 39°54' W 075°12'0 0.0
2017-Aug-11 12:30N 39°54' W 075°12'0 0.1
2017-Aug-11 12:00N 39°53' W 075°12'0 0.0
2017-Aug-11 11:31N 39°53' W 075°12'0 0.0
2017-Aug-11 11:01N 39°53' W 075°12'0 0.2
2017-Aug-11 10:31N 39°54' W 075°12'0 0.0
2017-Aug-11 10:00N 39°54' W 075°12'0 0.1
2017-Aug-11 09:30N 39°54' W 075°12'0 0.0
2017-Aug-11 09:00N 39°54' W 075°12'0 0.0
2017-Aug-11 08:30N 39°54' W 075°12'0 0.0
2017-Aug-11 08:00N 39°54' W 075°12'0 0.0
2017-Aug-11 07:31N 39°54' W 075°12'0 0.0
2017-Aug-11 07:00N 39°54' W 075°12'0 0.9
2017-Aug-11 06:31N 39°53' W 075°12'3 6.1
2017-Aug-11 06:01N 39°54' W 075°08'0 0.0
2017-Aug-11 05:30N 39°54' W 075°08'0 0.7
2017-Aug-11 05:00N 39°53' W 075°08'2 4.5
2017-Aug-11 04:30N 39°53' W 075°11'5 9.1
2017-Aug-11 04:00N 39°51' W 075°16'4 8.9
2017-Aug-11 03:30N 39°50' W 075°22'4 8.8
2017-Aug-11 03:00N 39°47' W 075°27'4 8.2
2017-Aug-11 02:30N 39°44' W 075°30'4 7.8
2017-Aug-11 02:00N 39°40' W 075°32'3 6.5
2017-Aug-11 01:30N 39°38' W 075°34'3 6.6
2017-Aug-11 01:00N 39°35' W 075°33'3 5.2
2017-Aug-11 00:30N 39°33' W 075°36'4 8.7
2017-Aug-11 00:00N 39°33' W 075°42'4 8.6
2017-Aug-10 23:30N 39°32' W 075°47'4 7.3
2017-Aug-10 23:01N 39°32' W 075°52'4 8.0
2017-Aug-10 22:29N 39°29' W 075°56'6 7.8
2017-Aug-10 21:42N 39°25' W 076°02'34 6.9
2017-Aug-10 16:45N 38°55' W 076°24'3 7.7
2017-Aug-10 16:20N 38°52' W 076°25'51 7.2
2017-Aug-10 09:16N 38°01' W 076°22'3 8.9
2017-Aug-10 08:59N 38°03' W 076°25'5 8.6
2017-Aug-10 08:24N 38°06' W 076°30'34 1.8
2017-Aug-09 13:09N 38°24' W 077°06'31 6.9
2017-Aug-09 08:43N 38°08' W 076°33'2 7.9
2017-Aug-09 08:28N 38°06' W 076°31'4 8.0
2017-Aug-09 08:00N 38°04' W 076°27'4 8.1
2017-Aug-09 07:30N 38°02' W 076°23'4 8.3
2017-Aug-09 07:00N 37°60' W 076°19'76 1.8
2017-Aug-07 14:00N 39°14' W 076°33'  

Dump ship's entire track history